sensor_id;sensor_type;location;lat;lon;timestamp;P1;durP1;ratioP1;P2;durP2;ratioP2
70588;SDS011;58152;49.202;18.744;2023-10-19T00:00:32;27.52;;;19.17;;
70588;SDS011;58152;49.202;18.744;2023-10-19T00:03:04;28.55;;;19.90;;
70588;SDS011;58152;49.202;18.744;2023-10-19T00:05:31;27.88;;;19.52;;
70588;SDS011;58152;49.202;18.744;2023-10-19T00:07:58;25.95;;;17.98;;
70588;SDS011;58152;49.202;18.744;2023-10-19T00:10:40;28.08;;;18.95;;
70588;SDS011;58152;49.202;18.744;2023-10-19T00:13:13;23.75;;;16.65;;
70588;SDS011;58152;49.202;18.744;2023-10-19T00:15:39;22.20;;;16.02;;
70588;SDS011;58152;49.202;18.744;2023-10-19T00:18:17;23.90;;;17.45;;
70588;SDS011;58152;49.202;18.744;2023-10-19T00:20:47;23.35;;;17.33;;
70588;SDS011;58152;49.202;18.744;2023-10-19T00:23:17;21.52;;;16.23;;
70588;SDS011;58152;49.202;18.744;2023-10-19T00:25:54;24.08;;;17.83;;
70588;SDS011;58152;49.202;18.744;2023-10-19T00:28:21;27.60;;;19.10;;
70588;SDS011;58152;49.202;18.744;2023-10-19T00:30:47;26.63;;;18.42;;
70588;SDS011;58152;49.202;18.744;2023-10-19T00:33:14;24.38;;;17.40;;
70588;SDS011;58152;49.202;18.744;2023-10-19T00:35:45;28.77;;;19.15;;
70588;SDS011;58152;49.202;18.744;2023-10-19T00:38:30;24.08;;;17.67;;
70588;SDS011;58152;49.202;18.744;2023-10-19T00:40:58;25.40;;;17.35;;
70588;SDS011;58152;49.202;18.744;2023-10-19T00:43:50;23.30;;;17.02;;
70588;SDS011;58152;49.202;18.744;2023-10-19T00:46:22;26.63;;;17.98;;
70588;SDS011;58152;49.202;18.744;2023-10-19T00:48:53;23.55;;;16.05;;
70588;SDS011;58152;49.202;18.744;2023-10-19T00:51:22;22.00;;;16.60;;
70588;SDS011;58152;49.202;18.744;2023-10-19T00:53:55;22.70;;;16.98;;
70588;SDS011;58152;49.202;18.744;2023-10-19T00:56:24;25.15;;;17.42;;
70588;SDS011;58152;49.202;18.744;2023-10-19T00:58:56;23.73;;;16.15;;
70588;SDS011;58152;49.202;18.744;2023-10-19T01:01:26;23.13;;;16.27;;
70588;SDS011;58152;49.202;18.744;2023-10-19T01:03:56;23.10;;;16.30;;
70588;SDS011;58152;49.202;18.744;2023-10-19T01:06:23;22.98;;;15.45;;
70588;SDS011;58152;49.202;18.744;2023-10-19T01:08:48;23.17;;;17.17;;
70588;SDS011;58152;49.202;18.744;2023-10-19T01:11:16;23.67;;;17.73;;
70588;SDS011;58152;49.202;18.744;2023-10-19T01:13:44;24.27;;;18.00;;
70588;SDS011;58152;49.202;18.744;2023-10-19T01:16:15;26.48;;;17.98;;
70588;SDS011;58152;49.202;18.744;2023-10-19T01:18:49;23.83;;;17.60;;
70588;SDS011;58152;49.202;18.744;2023-10-19T01:21:19;22.23;;;16.58;;
70588;SDS011;58152;49.202;18.744;2023-10-19T01:23:46;24.40;;;16.45;;
70588;SDS011;58152;49.202;18.744;2023-10-19T01:26:13;22.42;;;17.10;;
70588;SDS011;58152;49.202;18.744;2023-10-19T01:28:46;23.88;;;17.58;;
70588;SDS011;58152;49.202;18.744;2023-10-19T01:31:26;24.65;;;16.70;;
70588;SDS011;58152;49.202;18.744;2023-10-19T01:33:59;22.05;;;15.93;;
70588;SDS011;58152;49.202;18.744;2023-10-19T01:36:34;23.77;;;15.85;;
70588;SDS011;58152;49.202;18.744;2023-10-19T01:39:08;23.17;;;15.68;;
70588;SDS011;58152;49.202;18.744;2023-10-19T01:41:37;21.38;;;14.77;;
70588;SDS011;58152;49.202;18.744;2023-10-19T01:44:06;23.02;;;15.57;;
70588;SDS011;58152;49.202;18.744;2023-10-19T01:46:31;22.25;;;15.75;;
70588;SDS011;58152;49.202;18.744;2023-10-19T01:49:00;21.23;;;16.60;;
70588;SDS011;58152;49.202;18.744;2023-10-19T01:51:27;19.15;;;14.27;;
70588;SDS011;58152;49.202;18.744;2023-10-19T01:53:55;21.90;;;15.80;;
70588;SDS011;58152;49.202;18.744;2023-10-19T01:56:21;22.92;;;15.18;;
70588;SDS011;58152;49.202;18.744;2023-10-19T01:58:47;17.75;;;13.73;;
70588;SDS011;58152;49.202;18.744;2023-10-19T02:01:14;24.05;;;14.93;;
70588;SDS011;58152;49.202;18.744;2023-10-19T02:03:53;19.50;;;14.52;;
70588;SDS011;58152;49.202;18.744;2023-10-19T02:06:24;21.75;;;13.88;;
70588;SDS011;58152;49.202;18.744;2023-10-19T02:09:03;22.45;;;15.10;;
70588;SDS011;58152;49.202;18.744;2023-10-19T02:11:41;21.35;;;14.98;;
70588;SDS011;58152;49.202;18.744;2023-10-19T02:14:07;16.50;;;12.80;;
70588;SDS011;58152;49.202;18.744;2023-10-19T02:16:39;19.35;;;13.75;;
70588;SDS011;58152;49.202;18.744;2023-10-19T02:19:08;15.85;;;11.25;;
70588;SDS011;58152;49.202;18.744;2023-10-19T02:21:37;17.63;;;11.73;;
70588;SDS011;58152;49.202;18.744;2023-10-19T02:24:08;14.68;;;10.20;;
70588;SDS011;58152;49.202;18.744;2023-10-19T02:26:39;15.55;;;11.27;;
70588;SDS011;58152;49.202;18.744;2023-10-19T02:29:05;17.25;;;10.60;;
70588;SDS011;58152;49.202;18.744;2023-10-19T02:31:35;14.80;;;11.10;;
70588;SDS011;58152;49.202;18.744;2023-10-19T02:34:05;16.60;;;11.55;;
70588;SDS011;58152;49.202;18.744;2023-10-19T02:36:33;16.05;;;11.85;;
70588;SDS011;58152;49.202;18.744;2023-10-19T02:39:02;16.95;;;12.35;;
70588;SDS011;58152;49.202;18.744;2023-10-19T02:41:33;17.33;;;12.85;;
70588;SDS011;58152;49.202;18.744;2023-10-19T02:44:16;17.58;;;11.77;;
70588;SDS011;58152;49.202;18.744;2023-10-19T02:46:46;18.73;;;12.82;;
70588;SDS011;58152;49.202;18.744;2023-10-19T02:49:13;17.38;;;11.57;;
70588;SDS011;58152;49.202;18.744;2023-10-19T02:51:43;15.65;;;9.82;;
70588;SDS011;58152;49.202;18.744;2023-10-19T02:54:09;13.80;;;11.25;;
70588;SDS011;58152;49.202;18.744;2023-10-19T02:56:41;15.93;;;11.13;;
70588;SDS011;58152;49.202;18.744;2023-10-19T02:59:09;15.68;;;12.00;;
70588;SDS011;58152;49.202;18.744;2023-10-19T03:01:34;16.20;;;11.85;;
70588;SDS011;58152;49.202;18.744;2023-10-19T03:04:00;17.70;;;12.77;;
70588;SDS011;58152;49.202;18.744;2023-10-19T03:06:27;14.60;;;11.88;;
70588;SDS011;58152;49.202;18.744;2023-10-19T03:09:04;16.75;;;11.27;;
70588;SDS011;58152;49.202;18.744;2023-10-19T03:11:40;15.35;;;11.13;;
70588;SDS011;58152;49.202;18.744;2023-10-19T03:14:06;16.00;;;11.63;;
70588;SDS011;58152;49.202;18.744;2023-10-19T03:16:33;18.52;;;12.75;;
70588;SDS011;58152;49.202;18.744;2023-10-19T03:19:00;17.98;;;11.77;;
70588;SDS011;58152;49.202;18.744;2023-10-19T03:21:25;16.63;;;11.30;;
70588;SDS011;58152;49.202;18.744;2023-10-19T03:23:58;14.80;;;11.57;;
70588;SDS011;58152;49.202;18.744;2023-10-19T03:26:26;13.50;;;10.35;;
70588;SDS011;58152;49.202;18.744;2023-10-19T03:29:02;16.10;;;12.07;;
70588;SDS011;58152;49.202;18.744;2023-10-19T03:31:37;15.82;;;11.18;;
70588;SDS011;58152;49.202;18.744;2023-10-19T03:34:09;16.50;;;12.00;;
70588;SDS011;58152;49.202;18.744;2023-10-19T03:36:35;14.43;;;10.68;;
70588;SDS011;58152;49.202;18.744;2023-10-19T03:39:01;14.75;;;11.10;;
70588;SDS011;58152;49.202;18.744;2023-10-19T03:41:36;17.58;;;11.85;;
70588;SDS011;58152;49.202;18.744;2023-10-19T03:44:04;16.95;;;12.20;;
70588;SDS011;58152;49.202;18.744;2023-10-19T03:46:29;14.50;;;9.98;;
70588;SDS011;58152;49.202;18.744;2023-10-19T03:48:59;17.85;;;11.80;;
70588;SDS011;58152;49.202;18.744;2023-10-19T03:51:28;15.13;;;10.32;;
70588;SDS011;58152;49.202;18.744;2023-10-19T03:54:04;14.40;;;10.68;;
70588;SDS011;58152;49.202;18.744;2023-10-19T03:56:46;14.43;;;10.40;;
70588;SDS011;58152;49.202;18.744;2023-10-19T03:59:13;17.58;;;11.65;;
70588;SDS011;58152;49.202;18.744;2023-10-19T04:01:38;11.82;;;9.70;;
70588;SDS011;58152;49.202;18.744;2023-10-19T04:04:04;13.63;;;9.05;;
70588;SDS011;58152;49.202;18.744;2023-10-19T04:06:30;13.98;;;10.13;;
70588;SDS011;58152;49.202;18.744;2023-10-19T04:08:55;15.90;;;10.93;;
70588;SDS011;58152;49.202;18.744;2023-10-19T04:11:21;16.67;;;11.23;;
70588;SDS011;58152;49.202;18.744;2023-10-19T04:13:57;14.02;;;10.25;;
70588;SDS011;58152;49.202;18.744;2023-10-19T04:16:24;14.20;;;10.48;;
70588;SDS011;58152;49.202;18.744;2023-10-19T04:18:49;15.25;;;10.95;;
70588;SDS011;58152;49.202;18.744;2023-10-19T04:21:15;13.70;;;10.50;;
70588;SDS011;58152;49.202;18.744;2023-10-19T04:23:40;14.93;;;10.88;;
70588;SDS011;58152;49.202;18.744;2023-10-19T04:26:06;15.27;;;11.52;;
70588;SDS011;58152;49.202;18.744;2023-10-19T04:28:38;14.88;;;11.10;;
70588;SDS011;58152;49.202;18.744;2023-10-19T04:31:14;12.63;;;9.55;;
70588;SDS011;58152;49.202;18.744;2023-10-19T04:33:41;16.40;;;11.45;;
70588;SDS011;58152;49.202;18.744;2023-10-19T04:36:10;15.23;;;10.70;;
70588;SDS011;58152;49.202;18.744;2023-10-19T04:38:39;16.17;;;11.80;;
70588;SDS011;58152;49.202;18.744;2023-10-19T04:41:07;14.63;;;11.52;;
70588;SDS011;58152;49.202;18.744;2023-10-19T04:43:36;14.75;;;11.38;;
70588;SDS011;58152;49.202;18.744;2023-10-19T04:46:04;13.23;;;10.15;;
70588;SDS011;58152;49.202;18.744;2023-10-19T04:48:36;13.90;;;10.82;;
70588;SDS011;58152;49.202;18.744;2023-10-19T04:51:07;15.80;;;10.95;;
70588;SDS011;58152;49.202;18.744;2023-10-19T04:53:34;13.45;;;10.35;;
70588;SDS011;58152;49.202;18.744;2023-10-19T04:56:00;16.02;;;10.70;;
70588;SDS011;58152;49.202;18.744;2023-10-19T04:58:29;13.80;;;10.15;;
70588;SDS011;58152;49.202;18.744;2023-10-19T05:00:55;10.88;;;8.90;;
70588;SDS011;58152;49.202;18.744;2023-10-19T05:03:23;14.98;;;10.25;;
70588;SDS011;58152;49.202;18.744;2023-10-19T05:05:48;15.05;;;10.30;;
70588;SDS011;58152;49.202;18.744;2023-10-19T05:08:14;12.68;;;9.80;;
70588;SDS011;58152;49.202;18.744;2023-10-19T05:10:39;14.32;;;10.57;;
70588;SDS011;58152;49.202;18.744;2023-10-19T05:13:06;13.57;;;10.32;;
70588;SDS011;58152;49.202;18.744;2023-10-19T05:15:32;12.13;;;9.07;;
70588;SDS011;58152;49.202;18.744;2023-10-19T05:17:59;11.98;;;9.00;;
70588;SDS011;58152;49.202;18.744;2023-10-19T05:20:25;16.35;;;10.55;;
70588;SDS011;58152;49.202;18.744;2023-10-19T05:22:50;15.88;;;10.73;;
70588;SDS011;58152;49.202;18.744;2023-10-19T05:25:16;13.63;;;10.93;;
70588;SDS011;58152;49.202;18.744;2023-10-19T05:27:41;14.55;;;10.70;;
70588;SDS011;58152;49.202;18.744;2023-10-19T05:30:07;14.80;;;10.60;;
70588;SDS011;58152;49.202;18.744;2023-10-19T05:32:36;13.45;;;9.75;;
70588;SDS011;58152;49.202;18.744;2023-10-19T05:35:01;10.73;;;8.77;;
70588;SDS011;58152;49.202;18.744;2023-10-19T05:37:30;13.05;;;10.18;;
70588;SDS011;58152;49.202;18.744;2023-10-19T05:39:58;13.88;;;9.88;;
70588;SDS011;58152;49.202;18.744;2023-10-19T05:42:24;12.02;;;9.75;;
70588;SDS011;58152;49.202;18.744;2023-10-19T05:44:50;14.55;;;10.38;;
70588;SDS011;58152;49.202;18.744;2023-10-19T05:47:16;18.50;;;10.93;;
70588;SDS011;58152;49.202;18.744;2023-10-19T05:49:42;12.63;;;9.60;;
70588;SDS011;58152;49.202;18.744;2023-10-19T05:52:07;11.32;;;8.65;;
70588;SDS011;58152;49.202;18.744;2023-10-19T05:54:33;13.30;;;9.07;;
70588;SDS011;58152;49.202;18.744;2023-10-19T05:56:58;13.45;;;11.45;;
70588;SDS011;58152;49.202;18.744;2023-10-19T05:59:23;12.82;;;10.10;;
70588;SDS011;58152;49.202;18.744;2023-10-19T06:01:51;12.25;;;9.50;;
70588;SDS011;58152;49.202;18.744;2023-10-19T06:04:17;11.93;;;9.82;;
70588;SDS011;58152;49.202;18.744;2023-10-19T06:06:42;12.40;;;9.38;;
70588;SDS011;58152;49.202;18.744;2023-10-19T06:09:08;16.65;;;10.10;;
70588;SDS011;58152;49.202;18.744;2023-10-19T06:11:36;15.95;;;10.25;;
70588;SDS011;58152;49.202;18.744;2023-10-19T06:14:05;12.48;;;9.07;;
70588;SDS011;58152;49.202;18.744;2023-10-19T06:16:34;11.60;;;9.27;;
70588;SDS011;58152;49.202;18.744;2023-10-19T06:19:00;10.07;;;7.35;;
70588;SDS011;58152;49.202;18.744;2023-10-19T06:21:26;9.52;;;7.90;;
70588;SDS011;58152;49.202;18.744;2023-10-19T06:23:51;10.57;;;8.70;;
70588;SDS011;58152;49.202;18.744;2023-10-19T06:26:18;12.82;;;8.05;;
70588;SDS011;58152;49.202;18.744;2023-10-19T06:28:44;8.15;;;7.15;;
70588;SDS011;58152;49.202;18.744;2023-10-19T06:31:09;8.75;;;7.30;;
70588;SDS011;58152;49.202;18.744;2023-10-19T06:33:35;10.18;;;7.75;;
70588;SDS011;58152;49.202;18.744;2023-10-19T06:36:02;114.43;;;96.05;;
70588;SDS011;58152;49.202;18.744;2023-10-19T06:38:30;183.63;;;161.40;;
70588;SDS011;58152;49.202;18.744;2023-10-19T06:40:59;121.90;;;103.43;;
70588;SDS011;58152;49.202;18.744;2023-10-19T06:43:27;61.85;;;49.97;;
70588;SDS011;58152;49.202;18.744;2023-10-19T06:45:55;26.02;;;20.25;;
70588;SDS011;58152;49.202;18.744;2023-10-19T06:48:21;13.98;;;11.73;;
70588;SDS011;58152;49.202;18.744;2023-10-19T06:50:46;10.00;;;8.38;;
70588;SDS011;58152;49.202;18.744;2023-10-19T06:53:12;6.68;;;6.03;;
70588;SDS011;58152;49.202;18.744;2023-10-19T06:55:37;6.00;;;5.40;;
70588;SDS011;58152;49.202;18.744;2023-10-19T06:58:02;18.38;;;16.38;;
70588;SDS011;58152;49.202;18.744;2023-10-19T07:00:29;208.55;;;186.35;;
70588;SDS011;58152;49.202;18.744;2023-10-19T07:02:56;109.30;;;88.28;;
70588;SDS011;58152;49.202;18.744;2023-10-19T07:05:25;49.33;;;40.60;;
70588;SDS011;58152;49.202;18.744;2023-10-19T07:07:55;25.90;;;22.30;;
70588;SDS011;58152;49.202;18.744;2023-10-19T07:10:21;16.42;;;13.88;;
70588;SDS011;58152;49.202;18.744;2023-10-19T07:12:48;11.70;;;9.32;;
70588;SDS011;58152;49.202;18.744;2023-10-19T07:15:21;9.30;;;8.13;;
70588;SDS011;58152;49.202;18.744;2023-10-19T07:17:48;8.20;;;7.38;;
70588;SDS011;58152;49.202;18.744;2023-10-19T07:20:15;8.18;;;6.40;;
70588;SDS011;58152;49.202;18.744;2023-10-19T07:25:19;6.72;;;5.38;;
70588;SDS011;58152;49.202;18.744;2023-10-19T07:27:49;7.40;;;6.38;;
70588;SDS011;58152;49.202;18.744;2023-10-19T07:30:15;6.72;;;5.80;;
70588;SDS011;58152;49.202;18.744;2023-10-19T07:32:46;7.57;;;6.45;;
70588;SDS011;58152;49.202;18.744;2023-10-19T07:35:20;9.25;;;6.47;;
70588;SDS011;58152;49.202;18.744;2023-10-19T07:37:46;6.38;;;5.55;;
70588;SDS011;58152;49.202;18.744;2023-10-19T07:40:13;8.40;;;5.97;;
70588;SDS011;58152;49.202;18.744;2023-10-19T07:42:39;9.23;;;6.15;;
70588;SDS011;58152;49.202;18.744;2023-10-19T07:45:05;8.30;;;5.53;;
70588;SDS011;58152;49.202;18.744;2023-10-19T07:47:36;6.95;;;5.43;;
70588;SDS011;58152;49.202;18.744;2023-10-19T07:50:05;5.82;;;4.97;;
70588;SDS011;58152;49.202;18.744;2023-10-19T07:52:44;5.60;;;5.03;;
70588;SDS011;58152;49.202;18.744;2023-10-19T07:55:17;5.40;;;4.47;;
70588;SDS011;58152;49.202;18.744;2023-10-19T07:57:44;6.13;;;4.72;;
70588;SDS011;58152;49.202;18.744;2023-10-19T08:00:10;5.30;;;4.35;;
70588;SDS011;58152;49.202;18.744;2023-10-19T08:02:38;6.60;;;5.38;;
70588;SDS011;58152;49.202;18.744;2023-10-19T08:05:06;5.90;;;5.28;;
70588;SDS011;58152;49.202;18.744;2023-10-19T08:07:33;6.00;;;4.75;;
70588;SDS011;58152;49.202;18.744;2023-10-19T08:10:02;5.22;;;4.72;;
70588;SDS011;58152;49.202;18.744;2023-10-19T08:12:30;7.25;;;5.15;;
70588;SDS011;58152;49.202;18.744;2023-10-19T08:14:56;5.13;;;4.65;;
70588;SDS011;58152;49.202;18.744;2023-10-19T08:17:21;4.00;;;3.60;;
70588;SDS011;58152;49.202;18.744;2023-10-19T08:19:48;5.10;;;4.45;;
70588;SDS011;58152;49.202;18.744;2023-10-19T08:22:13;4.10;;;3.80;;
70588;SDS011;58152;49.202;18.744;2023-10-19T08:24:40;5.07;;;3.65;;
70588;SDS011;58152;49.202;18.744;2023-10-19T08:27:08;4.03;;;3.65;;
70588;SDS011;58152;49.202;18.744;2023-10-19T08:29:36;4.28;;;3.88;;
70588;SDS011;58152;49.202;18.744;2023-10-19T08:32:02;3.67;;;3.35;;
70588;SDS011;58152;49.202;18.744;2023-10-19T08:34:27;3.42;;;3.13;;
70588;SDS011;58152;49.202;18.744;2023-10-19T08:36:54;3.90;;;3.60;;
70588;SDS011;58152;49.202;18.744;2023-10-19T08:39:20;4.63;;;3.72;;
70588;SDS011;58152;49.202;18.744;2023-10-19T08:41:46;4.28;;;3.85;;
70588;SDS011;58152;49.202;18.744;2023-10-19T08:44:14;4.88;;;4.38;;
70588;SDS011;58152;49.202;18.744;2023-10-19T08:46:43;5.32;;;4.50;;
70588;SDS011;58152;49.202;18.744;2023-10-19T08:49:13;4.60;;;4.20;;
70588;SDS011;58152;49.202;18.744;2023-10-19T08:51:44;4.40;;;4.00;;
70588;SDS011;58152;49.202;18.744;2023-10-19T08:54:13;4.55;;;4.15;;
70588;SDS011;58152;49.202;18.744;2023-10-19T08:56:40;4.97;;;4.53;;
70588;SDS011;58152;49.202;18.744;2023-10-19T08:59:10;5.30;;;4.10;;
70588;SDS011;58152;49.202;18.744;2023-10-19T09:01:36;5.10;;;4.60;;
70588;SDS011;58152;49.202;18.744;2023-10-19T09:04:02;4.38;;;3.97;;
70588;SDS011;58152;49.202;18.744;2023-10-19T09:06:31;4.80;;;4.15;;
70588;SDS011;58152;49.202;18.744;2023-10-19T09:09:06;7.65;;;4.75;;
70588;SDS011;58152;49.202;18.744;2023-10-19T09:11:42;6.10;;;4.95;;
70588;SDS011;58152;49.202;18.744;2023-10-19T09:14:08;5.60;;;4.85;;
70588;SDS011;58152;49.202;18.744;2023-10-19T09:16:33;6.38;;;5.78;;
70588;SDS011;58152;49.202;18.744;2023-10-19T09:19:02;5.32;;;4.82;;
70588;SDS011;58152;49.202;18.744;2023-10-19T09:21:27;4.47;;;4.07;;
70588;SDS011;58152;49.202;18.744;2023-10-19T09:23:54;5.22;;;4.72;;
70588;SDS011;58152;49.202;18.744;2023-10-19T09:26:22;6.45;;;5.78;;
70588;SDS011;58152;49.202;18.744;2023-10-19T09:28:48;6.32;;;5.68;;
70588;SDS011;58152;49.202;18.744;2023-10-19T09:31:15;5.47;;;4.97;;
70588;SDS011;58152;49.202;18.744;2023-10-19T09:33:41;5.25;;;4.60;;
70588;SDS011;58152;49.202;18.744;2023-10-19T09:36:12;5.35;;;4.85;;
70588;SDS011;58152;49.202;18.744;2023-10-19T09:38:48;5.03;;;4.57;;
70588;SDS011;58152;49.202;18.744;2023-10-19T09:41:18;5.07;;;4.63;;
70588;SDS011;58152;49.202;18.744;2023-10-19T09:43:48;8.30;;;5.07;;
70588;SDS011;58152;49.202;18.744;2023-10-19T09:46:21;5.55;;;5.07;;
70588;SDS011;58152;49.202;18.744;2023-10-19T09:48:49;5.22;;;4.72;;
70588;SDS011;58152;49.202;18.744;2023-10-19T09:51:17;5.20;;;4.22;;
70588;SDS011;58152;49.202;18.744;2023-10-19T09:53:45;6.22;;;4.70;;
70588;SDS011;58152;49.202;18.744;2023-10-19T09:56:19;5.45;;;4.95;;
70588;SDS011;58152;49.202;18.744;2023-10-19T09:58:49;5.55;;;4.53;;
70588;SDS011;58152;49.202;18.744;2023-10-19T10:01:18;4.80;;;4.40;;
70588;SDS011;58152;49.202;18.744;2023-10-19T10:03:53;5.13;;;4.55;;
70588;SDS011;58152;49.202;18.744;2023-10-19T10:08:55;5.20;;;4.55;;
70588;SDS011;58152;49.202;18.744;2023-10-19T10:11:22;4.57;;;4.18;;
70588;SDS011;58152;49.202;18.744;2023-10-19T10:13:49;5.07;;;4.57;;
70588;SDS011;58152;49.202;18.744;2023-10-19T10:16:19;5.72;;;4.32;;
70588;SDS011;58152;49.202;18.744;2023-10-19T10:18:48;4.53;;;4.13;;
70588;SDS011;58152;49.202;18.744;2023-10-19T10:21:19;5.07;;;4.57;;
70588;SDS011;58152;49.202;18.744;2023-10-19T10:23:49;5.90;;;5.22;;
70588;SDS011;58152;49.202;18.744;2023-10-19T10:26:18;5.07;;;4.57;;
70588;SDS011;58152;49.202;18.744;2023-10-19T10:28:48;5.22;;;4.60;;
70588;SDS011;58152;49.202;18.744;2023-10-19T10:31:33;4.85;;;4.35;;
70588;SDS011;58152;49.202;18.744;2023-10-19T10:34:01;4.90;;;4.25;;
70588;SDS011;58152;49.202;18.744;2023-10-19T10:36:27;6.55;;;4.57;;
70588;SDS011;58152;49.202;18.744;2023-10-19T10:39:29;7.00;;;4.43;;
70588;SDS011;58152;49.202;18.744;2023-10-19T10:41:59;5.47;;;4.97;;
70588;SDS011;58152;49.202;18.744;2023-10-19T10:44:38;15.02;;;13.25;;
70588;SDS011;58152;49.202;18.744;2023-10-19T10:47:08;132.25;;;118.05;;
70588;SDS011;58152;49.202;18.744;2023-10-19T10:49:52;49.25;;;43.42;;
70588;SDS011;58152;49.202;18.744;2023-10-19T10:52:29;22.88;;;19.70;;
70588;SDS011;58152;49.202;18.744;2023-10-19T10:55:06;11.98;;;10.57;;
70588;SDS011;58152;49.202;18.744;2023-10-19T10:57:36;9.55;;;7.50;;
70588;SDS011;58152;49.202;18.744;2023-10-19T11:02:33;6.72;;;6.03;;
70588;SDS011;58152;49.202;18.744;2023-10-19T11:05:00;6.65;;;6.05;;
70588;SDS011;58152;49.202;18.744;2023-10-19T11:07:26;7.22;;;6.53;;
70588;SDS011;58152;49.202;18.744;2023-10-19T11:09:51;7.28;;;6.45;;
70588;SDS011;58152;49.202;18.744;2023-10-19T11:12:17;6.90;;;6.30;;
70588;SDS011;58152;49.202;18.744;2023-10-19T11:14:52;6.82;;;6.13;;
70588;SDS011;58152;49.202;18.744;2023-10-19T11:17:18;6.93;;;6.15;;
70588;SDS011;58152;49.202;18.744;2023-10-19T11:19:44;5.80;;;5.30;;
70588;SDS011;58152;49.202;18.744;2023-10-19T11:22:09;6.82;;;6.13;;
70588;SDS011;58152;49.202;18.744;2023-10-19T11:24:35;7.65;;;6.85;;
70588;SDS011;58152;49.202;18.744;2023-10-19T11:27:05;8.43;;;7.25;;
70588;SDS011;58152;49.202;18.744;2023-10-19T11:29:33;8.55;;;7.72;;
70588;SDS011;58152;49.202;18.744;2023-10-19T11:32:01;8.13;;;7.28;;
70588;SDS011;58152;49.202;18.744;2023-10-19T11:34:27;9.65;;;8.25;;
70588;SDS011;58152;49.202;18.744;2023-10-19T11:36:54;9.68;;;8.73;;
70588;SDS011;58152;49.202;18.744;2023-10-19T11:39:22;11.48;;;10.27;;
70588;SDS011;58152;49.202;18.744;2023-10-19T11:41:49;11.02;;;10.02;;
70588;SDS011;58152;49.202;18.744;2023-10-19T11:44:14;10.02;;;9.00;;
70588;SDS011;58152;49.202;18.744;2023-10-19T11:46:40;8.38;;;7.55;;
70588;SDS011;58152;49.202;18.744;2023-10-19T11:49:05;11.00;;;9.07;;
70588;SDS011;58152;49.202;18.744;2023-10-19T11:51:31;12.05;;;10.15;;
70588;SDS011;58152;49.202;18.744;2023-10-19T11:53:56;10.32;;;8.35;;
70588;SDS011;58152;49.202;18.744;2023-10-19T11:56:22;9.15;;;8.25;;
70588;SDS011;58152;49.202;18.744;2023-10-19T11:58:50;8.57;;;7.78;;
70588;SDS011;58152;49.202;18.744;2023-10-19T12:01:16;8.68;;;7.82;;
70588;SDS011;58152;49.202;18.744;2023-10-19T12:03:44;8.25;;;7.20;;
70588;SDS011;58152;49.202;18.744;2023-10-19T12:06:13;8.00;;;7.15;;
70588;SDS011;58152;49.202;18.744;2023-10-19T12:08:45;9.60;;;8.43;;
70588;SDS011;58152;49.202;18.744;2023-10-19T12:11:11;8.48;;;7.57;;
70588;SDS011;58152;49.202;18.744;2023-10-19T12:13:40;8.48;;;7.60;;
70588;SDS011;58152;49.202;18.744;2023-10-19T12:16:08;8.07;;;7.28;;
70588;SDS011;58152;49.202;18.744;2023-10-19T12:18:36;8.63;;;7.72;;
70588;SDS011;58152;49.202;18.744;2023-10-19T12:21:03;9.30;;;8.40;;
70588;SDS011;58152;49.202;18.744;2023-10-19T12:23:32;8.82;;;7.60;;
70588;SDS011;58152;49.202;18.744;2023-10-19T12:25:58;8.32;;;7.45;;
70588;SDS011;58152;49.202;18.744;2023-10-19T12:28:28;10.48;;;8.88;;
70588;SDS011;58152;49.202;18.744;2023-10-19T12:30:53;9.35;;;7.82;;
70588;SDS011;58152;49.202;18.744;2023-10-19T12:33:18;9.48;;;8.30;;
70588;SDS011;58152;49.202;18.744;2023-10-19T12:35:44;9.10;;;8.15;;
70588;SDS011;58152;49.202;18.744;2023-10-19T12:38:11;8.70;;;7.90;;
70588;SDS011;58152;49.202;18.744;2023-10-19T12:40:44;8.70;;;7.80;;
70588;SDS011;58152;49.202;18.744;2023-10-19T12:43:14;11.95;;;8.07;;
70588;SDS011;58152;49.202;18.744;2023-10-19T12:45:40;8.65;;;7.80;;
70588;SDS011;58152;49.202;18.744;2023-10-19T12:48:07;8.85;;;7.95;;
70588;SDS011;58152;49.202;18.744;2023-10-19T12:50:36;9.38;;;8.32;;
70588;SDS011;58152;49.202;18.744;2023-10-19T12:53:02;9.23;;;8.30;;
70588;SDS011;58152;49.202;18.744;2023-10-19T12:55:28;8.75;;;7.85;;
70588;SDS011;58152;49.202;18.744;2023-10-19T12:57:56;9.25;;;8.30;;
70588;SDS011;58152;49.202;18.744;2023-10-19T13:00:22;9.80;;;8.60;;
70588;SDS011;58152;49.202;18.744;2023-10-19T13:02:49;19.63;;;13.63;;
70588;SDS011;58152;49.202;18.744;2023-10-19T13:05:15;13.23;;;10.85;;
70588;SDS011;58152;49.202;18.744;2023-10-19T13:07:43;13.77;;;9.88;;
70588;SDS011;58152;49.202;18.744;2023-10-19T13:10:09;9.88;;;8.45;;
70588;SDS011;58152;49.202;18.744;2023-10-19T13:12:36;9.95;;;8.13;;
70588;SDS011;58152;49.202;18.744;2023-10-19T13:15:02;8.63;;;7.72;;
70588;SDS011;58152;49.202;18.744;2023-10-19T13:17:27;8.73;;;7.82;;
70588;SDS011;58152;49.202;18.744;2023-10-19T13:19:55;8.52;;;7.10;;
70588;SDS011;58152;49.202;18.744;2023-10-19T13:22:23;10.43;;;7.22;;
70588;SDS011;58152;49.202;18.744;2023-10-19T13:24:49;7.35;;;6.63;;
70588;SDS011;58152;49.202;18.744;2023-10-19T13:27:18;8.68;;;7.32;;
70588;SDS011;58152;49.202;18.744;2023-10-19T13:29:44;9.07;;;7.68;;
70588;SDS011;58152;49.202;18.744;2023-10-19T13:32:12;9.32;;;7.20;;
70588;SDS011;58152;49.202;18.744;2023-10-19T13:34:37;10.15;;;7.72;;
70588;SDS011;58152;49.202;18.744;2023-10-19T13:37:05;8.95;;;7.05;;
70588;SDS011;58152;49.202;18.744;2023-10-19T13:39:33;7.97;;;6.57;;
70588;SDS011;58152;49.202;18.744;2023-10-19T13:41:58;9.13;;;7.85;;
70588;SDS011;58152;49.202;18.744;2023-10-19T13:44:23;9.48;;;7.40;;
70588;SDS011;58152;49.202;18.744;2023-10-19T13:46:51;10.32;;;8.48;;
70588;SDS011;58152;49.202;18.744;2023-10-19T13:49:19;11.45;;;8.70;;
70588;SDS011;58152;49.202;18.744;2023-10-19T13:51:47;8.25;;;7.20;;
70588;SDS011;58152;49.202;18.744;2023-10-19T13:54:13;10.55;;;7.60;;
70588;SDS011;58152;49.202;18.744;2023-10-19T13:56:38;8.63;;;7.18;;
70588;SDS011;58152;49.202;18.744;2023-10-19T13:59:07;10.13;;;7.40;;
70588;SDS011;58152;49.202;18.744;2023-10-19T14:01:32;8.32;;;7.10;;
70588;SDS011;58152;49.202;18.744;2023-10-19T14:03:58;11.60;;;8.05;;
70588;SDS011;58152;49.202;18.744;2023-10-19T14:06:24;9.25;;;7.57;;
70588;SDS011;58152;49.202;18.744;2023-10-19T14:08:55;7.60;;;6.35;;
70588;SDS011;58152;49.202;18.744;2023-10-19T14:11:21;9.45;;;7.43;;
70588;SDS011;58152;49.202;18.744;2023-10-19T14:13:48;9.63;;;7.82;;
70588;SDS011;58152;49.202;18.744;2023-10-19T14:16:15;13.77;;;8.40;;
70588;SDS011;58152;49.202;18.744;2023-10-19T14:18:41;8.60;;;7.70;;
70588;SDS011;58152;49.202;18.744;2023-10-19T14:21:15;8.43;;;7.47;;
70588;SDS011;58152;49.202;18.744;2023-10-19T14:23:42;9.98;;;8.75;;
70588;SDS011;58152;49.202;18.744;2023-10-19T14:26:09;10.43;;;8.30;;
70588;SDS011;58152;49.202;18.744;2023-10-19T14:28:35;11.20;;;8.93;;
70588;SDS011;58152;49.202;18.744;2023-10-19T14:31:04;9.15;;;8.20;;
70588;SDS011;58152;49.202;18.744;2023-10-19T14:33:30;12.38;;;9.48;;
70588;SDS011;58152;49.202;18.744;2023-10-19T14:35:56;13.80;;;9.90;;